Time;durP1;ratioP1;P1;durP2;ratioP2;P2;SDS_P1;SDS_P2;PMS_P1;PMS_P2;Temp;Humidity;BMP_temperature;BMP_pressure;BME280_temperature;BME280_humidity;BME280_pressure;Samples;Min_cycle;Max_cycle;Signal;HPM_P1;HPM_P2
2023/03/23 00:00:38;;;;;;;2.57;2.13;;;16.30;35.40;;;;;;20784;6827;71073;-74
2023/03/23 00:03:03;;;;;;;2.50;2.30;;;16.10;35.70;;;;;;20570;6827;307088;-74
2023/03/23 00:05:28;;;;;;;2.17;2.07;;;16.20;35.70;;;;;;20567;6827;307885;-75
2023/03/23 00:07:55;;;;;;;2.40;2.20;;;16.50;35.50;;;;;;20548;6836;277426;-75
2023/03/23 00:10:20;;;;;;;2.05;1.95;;;16.80;35.00;;;;;;20785;6827;67853;-74
2023/03/23 00:12:49;;;;;;;1.90;1.80;;;16.70;35.00;;;;;;20828;6608;74412;-75
2023/03/23 00:15:24;;;;;;;2.10;1.90;;;16.40;35.30;;;;;;20738;6738;67636;-77
2023/03/23 00:18:02;;;;;;;2.70;2.20;;;16.10;35.50;;;;;;20973;6715;67244;-74
2023/03/23 00:20:40;;;;;;;2.23;2.10;;;16.00;35.60;;;;;;20981;6715;67031;-74
2023/03/23 00:23:10;;;;;;;2.30;2.20;;;15.80;36.10;;;;;;20628;6715;278928;-75
2023/03/23 00:25:46;;;;;;;2.67;2.20;;;16.10;37.40;;;;;;20949;6715;116956;-74
2023/03/23 00:28:24;;;;;;;2.20;2.10;;;16.10;37.00;;;;;;20939;6715;116841;-76
2023/03/23 00:30:57;;;;;;;3.47;1.90;;;15.90;37.10;;;;;;20957;6714;116824;-76
2023/03/23 00:33:37;;;;;;;2.42;2.28;;;15.80;37.30;;;;;;20740;6714;305301;-75
2023/03/23 00:36:08;;;;;;;2.20;2.10;;;16.00;37.30;;;;;;20864;6748;118083;-72
2023/03/23 00:38:46;;;;;;;1.90;1.80;;;16.00;37.30;;;;;;20946;6729;118803;-77
2023/03/23 00:41:20;;;;;;;2.23;2.07;;;15.80;37.20;;;;;;20828;6748;118137;-74
2023/03/23 00:43:55;;;;;;;2.30;2.10;;;15.70;37.30;;;;;;20882;6739;117458;-74
2023/03/23 00:46:31;;;;;;;2.77;2.30;;;15.60;37.40;;;;;;20629;6748;308385;-74
2023/03/23 00:49:06;;;;;;;2.40;2.20;;;15.80;37.50;;;;;;20942;6723;116934;-74
2023/03/23 00:51:42;;;;;;;2.37;2.20;;;15.90;37.30;;;;;;20702;6723;277479;-74
2023/03/23 00:54:23;;;;;;;3.57;2.10;;;16.10;37.00;;;;;;20914;6726;117780;-75
2023/03/23 00:56:53;;;;;;;2.45;2.35;;;16.10;36.80;;;;;;20645;6748;337106;-74
2023/03/23 00:59:29;;;;;;;3.40;2.00;;;16.30;36.80;;;;;;20915;6723;116980;-75
2023/03/23 01:02:04;;;;;;;2.40;2.20;;;16.20;36.60;;;;;;20641;6723;306607;-74
2023/03/23 01:04:40;;;;;;;2.30;2.20;;;16.30;36.60;;;;;;20971;6708;120413;-74
2023/03/23 01:07:17;;;;;;;3.10;2.00;;;16.00;36.60;;;;;;20988;6708;121196;-74
2023/03/23 01:09:53;;;;;;;2.30;2.10;;;16.00;36.60;;;;;;20695;6733;282363;-74
2023/03/23 01:12:27;;;;;;;2.40;2.20;;;16.20;36.80;;;;;;20596;6723;308108;-74
2023/03/23 01:15:03;;;;;;;2.13;2.03;;;16.50;36.40;;;;;;20725;6723;276409;-75
2023/03/23 01:17:39;;;;;;;2.40;2.20;;;16.80;36.00;;;;;;20690;6733;339845;-74
2023/03/23 01:20:14;;;;;;;2.03;1.92;;;16.90;35.60;;;;;;20703;6723;277237;-75
2023/03/23 01:22:50;;;;;;;2.03;1.93;;;17.00;35.50;;;;;;20744;6723;118096;-76
2023/03/23 01:25:25;;;;;;;1.87;1.77;;;16.80;35.70;;;;;;20927;6726;116949;-75
2023/03/23 01:28:01;;;;;;;2.43;1.87;;;16.40;36.10;;;;;;20940;6708;116888;-75
2023/03/23 01:30:36;;;;;;;2.40;1.87;;;16.10;36.40;;;;;;20960;6715;116993;-75
2023/03/23 01:33:12;;;;;;;1.90;1.80;;;15.90;36.70;;;;;;20751;6723;118476;-75
2023/03/23 01:35:48;;;;;;;1.90;1.80;;;15.60;37.10;;;;;;20914;6723;116846;-75
2023/03/23 01:38:24;;;;;;;2.00;1.90;;;15.60;37.10;;;;;;20977;6723;118594;-80
2023/03/23 01:40:59;;;;;;;1.90;1.80;;;15.50;37.20;;;;;;20765;6708;276169;-75
2023/03/23 01:43:35;;;;;;;2.08;1.87;;;15.80;37.20;;;;;;20657;6747;277609;-77
2023/03/23 01:46:11;;;;;;;2.00;1.90;;;16.60;35.90;;;;;;20704;6723;306133;-76
2023/03/23 01:48:47;;;;;;;2.12;2.03;;;16.50;35.80;;;;;;20747;6722;334885;-76
2023/03/23 01:51:22;;;;;;;2.10;1.90;;;16.80;35.50;;;;;;20938;6724;117901;-75
2023/03/23 01:53:58;;;;;;;2.47;1.83;;;16.70;35.60;;;;;;20708;6733;335190;-75
2023/03/23 01:56:37;;;;;;;2.30;2.20;;;16.70;35.60;;;;;;20706;6733;306451;-76
2023/03/23 01:59:13;;;;;;;2.20;2.00;;;16.80;35.40;;;;;;20598;6738;310214;-74
2023/03/23 02:01:48;;;;;;;2.00;1.80;;;17.00;35.20;;;;;;20914;6715;117240;-76
2023/03/23 02:04:24;;;;;;;2.50;2.30;;;16.40;35.90;;;;;;20869;6738;119206;-75
2023/03/23 02:07:04;;;;;;;2.20;2.10;;;16.40;35.90;;;;;;20937;6723;116944;-77
2023/03/23 02:09:40;;;;;;;2.13;2.00;;;16.10;36.30;;;;;;20742;6708;304654;-76
2023/03/23 02:12:13;;;;;;;2.40;2.07;;;16.30;36.80;;;;;;20828;6708;118219;-75
2023/03/23 02:14:48;;;;;;;2.13;2.03;;;16.20;36.70;;;;;;20960;6723;118282;-75
2023/03/23 02:17:27;;;;;;;1.73;1.63;;;16.00;37.00;;;;;;20979;6708;117355;-78
2023/03/23 02:20:32;;;;;;;2.17;2.07;;;15.80;37.20;;;;;;20888;6733;117094;-74
2023/03/23 02:23:15;;;;;;;2.00;1.90;;;15.60;37.40;;;;;;20759;6708;117263;-75
2023/03/23 02:26:24;;;;;;;2.20;2.03;;;15.80;38.10;;;;;;20750;6708;276190;-80
2023/03/23 02:29:16;;;;;;;2.30;2.20;;;15.70;38.00;;;;;;20737;6718;307907;-75
2023/03/23 02:32:12;;;;;;;1.97;1.87;;;16.20;37.20;;;;;;20862;6723;117044;-74
2023/03/23 02:34:51;;;;;;;3.72;2.10;;;16.30;37.20;;;;;;20686;6733;276758;-74
2023/03/23 02:37:30;;;;;;;2.90;1.60;;;16.30;37.20;;;;;;20898;6733;117448;-74
2023/03/23 02:40:12;;;;;;;2.33;2.22;;;16.20;37.20;;;;;;20722;6718;334883;-74
2023/03/23 02:42:48;;;;;;;2.33;2.20;;;16.30;37.10;;;;;;20806;6735;117163;-74
2023/03/23 02:45:23;;;;;;;2.00;1.90;;;16.20;37.00;;;;;;20907;6735;118490;-74
2023/03/23 02:48:00;;;;;;;2.07;1.97;;;15.70;37.40;;;;;;20825;6750;117419;-75
2023/03/23 02:50:36;;;;;;;2.50;2.00;;;15.70;37.40;;;;;;20747;6708;305518;-74
2023/03/23 02:53:12;;;;;;;1.70;1.60;;;15.90;37.30;;;;;;20757;6707;117660;-74
2023/03/23 02:55:48;;;;;;;1.90;1.80;;;15.90;37.20;;;;;;20983;6708;116682;-75
2023/03/23 02:58:23;;;;;;;2.33;1.90;;;15.70;37.30;;;;;;20915;6723;118400;-75
2023/03/23 03:01:00;;;;;;;1.70;1.60;;;15.50;37.80;;;;;;20848;6749;117444;-74
2023/03/23 03:03:36;;;;;;;1.80;1.70;;;15.40;37.70;;;;;;20882;6744;117873;-75
2023/03/23 03:06:42;;;;;;;2.00;1.90;;;15.40;37.90;;;;;;20685;6718;320828;-74
2023/03/23 03:09:31;;;;;;;2.15;1.95;;;15.70;38.20;;;;;;20659;6736;335742;-74
2023/03/23 03:12:10;;;;;;;1.90;1.80;;;16.20;37.40;;;;;;20866;6708;117361;-75
2023/03/23 03:15:05;;;;;;;2.00;1.90;;;16.10;37.10;;;;;;20751;6708;288649;-75
2023/03/23 03:17:39;;;;;;;2.60;1.83;;;16.20;37.10;;;;;;20960;6708;122594;-75
2023/03/23 03:20:13;;;;;;;1.70;1.60;;;16.10;37.10;;;;;;20924;6718;118024;-75
2023/03/23 03:22:48;;;;;;;1.80;1.70;;;15.90;37.50;;;;;;20590;6723;282598;-75
2023/03/23 03:25:25;;;;;;;1.97;1.80;;;16.00;37.50;;;;;;20979;6708;117361;-76
2023/03/23 03:28:00;;;;;;;1.87;1.77;;;16.00;37.50;;;;;;20703;6723;276578;-77
2023/03/23 03:30:36;;;;;;;2.65;2.10;;;16.20;37.80;;;;;;20709;6723;277166;-75
2023/03/23 03:33:12;;;;;;;1.90;1.80;;;16.50;37.50;;;;;;20616;6717;277474;-75
2023/03/23 03:35:47;;;;;;;2.03;1.87;;;16.80;37.30;;;;;;20729;6718;334111;-75
2023/03/23 03:38:23;;;;;;;2.00;1.90;;;17.00;37.70;;;;;;20921;6718;118462;-79
2023/03/23 03:40:58;;;;;;;1.90;1.80;;;16.80;37.60;;;;;;20929;6718;117006;-75
2023/03/23 03:43:36;;;;;;;1.50;1.40;;;16.10;37.90;;;;;;20758;6774;117325;-75
2023/03/23 03:46:11;;;;;;;1.40;1.30;;;16.10;37.90;;;;;;20870;6733;118223;-75
2023/03/23 03:48:47;;;;;;;1.70;1.60;;;15.90;38.10;;;;;;20933;6723;117455;-75
2023/03/23 03:51:22;;;;;;;1.80;1.43;;;15.80;38.30;;;;;;20912;6723;118548;-75
2023/03/23 03:53:58;;;;;;;2.03;1.60;;;15.60;38.30;;;;;;20908;6742;116856;-75
2023/03/23 03:56:40;;;;;;;1.33;1.23;;;15.50;38.60;;;;;;20901;6742;117108;-76
2023/03/23 03:59:13;;;;;;;1.70;1.60;;;15.40;38.50;;;;;;20693;6727;276974;-75
2023/03/23 04:01:53;;;;;;;2.03;1.50;;;15.80;38.60;;;;;;20866;6708;118265;-75
2023/03/23 04:04:24;;;;;;;1.33;1.33;;;15.80;38.30;;;;;;20919;6723;123192;-77
2023/03/23 04:07:02;;;;;;;2.40;1.67;;;15.70;38.40;;;;;;20928;6723;123252;-76
2023/03/23 04:09:36;;;;;;;1.73;1.62;;;15.60;38.50;;;;;;20719;6723;335927;-75
2023/03/23 04:12:11;;;;;;;2.50;1.40;;;15.90;38.40;;;;;;20616;6723;279256;-74
2023/03/23 04:14:47;;;;;;;1.57;1.47;;;16.60;37.40;;;;;;20671;6733;299015;-74
2023/03/23 04:17:25;;;;;;;1.50;1.40;;;16.60;37.50;;;;;;20966;6708;117738;-75
2023/03/23 04:20:06;;;;;;;1.50;1.50;;;16.50;37.50;;;;;;20744;6708;281069;-76
2023/03/23 04:22:37;;;;;;;1.50;1.40;;;16.60;37.50;;;;;;20809;6708;117439;-76
2023/03/23 04:25:14;;;;;;;1.83;1.40;;;16.20;38.00;;;;;;20959;6708;116826;-77
2023/03/23 04:27:52;;;;;;;1.87;1.77;;;16.20;38.00;;;;;;20928;6723;118083;-78
2023/03/23 04:30:30;;;;;;;1.40;1.40;;;15.90;38.30;;;;;;20870;6733;118684;-76
2023/03/23 04:33:01;;;;;;;1.60;1.60;;;15.80;38.60;;;;;;20748;6748;117821;-77
2023/03/23 04:35:35;;;;;;;1.80;1.70;;;15.60;38.80;;;;;;20933;6723;116783;-77
2023/03/23 04:38:12;;;;;;;2.57;1.57;;;15.40;40.00;;;;;;20826;6748;118282;-76
2023/03/23 04:40:47;;;;;;;1.50;1.40;;;15.40;39.30;;;;;;20700;6723;305783;-76
2023/03/23 04:43:24;;;;;;;1.70;1.50;;;15.70;39.40;;;;;;20688;6847;118842;-76
2023/03/23 04:45:59;;;;;;;1.60;1.50;;;15.80;39.00;;;;;;20888;6748;117087;-79
2023/03/23 04:48:37;;;;;;;1.73;1.62;;;15.70;39.10;;;;;;20683;6733;305625;-78
2023/03/23 04:51:12;;;;;;;2.00;1.90;;;16.40;39.40;;;;;;20701;6723;313800;-75
2023/03/23 04:53:47;;;;;;;2.10;2.00;;;16.30;39.40;;;;;;20642;6748;296784;-77
2023/03/23 04:56:23;;;;;;;1.87;1.67;;;16.70;39.40;;;;;;20950;6708;121298;-77
2023/03/23 04:59:00;;;;;;;1.60;1.50;;;16.50;39.00;;;;;;20954;6718;117031;-78
2023/03/23 05:01:37;;;;;;;1.80;1.70;;;16.20;39.10;;;;;;20905;6718;120827;-78
2023/03/23 05:04:16;;;;;;;2.23;1.50;;;15.70;39.80;;;;;;20946;6708;117295;-78
2023/03/23 05:06:48;;;;;;;1.50;1.40;;;15.70;39.70;;;;;;20970;6708;117392;-79
2023/03/23 05:09:25;;;;;;;1.60;1.50;;;15.80;40.60;;;;;;20769;6708;306343;-77
2023/03/23 05:12:07;;;;;;;1.47;1.37;;;15.80;40.60;;;;;;20764;6748;119104;-76
2023/03/23 05:14:42;;;;;;;1.67;1.58;;;15.80;40.00;;;;;;20809;6708;304837;-76
2023/03/23 05:17:18;;;;;;;1.48;1.40;;;16.10;39.70;;;;;;20730;6722;276267;-76
2023/03/23 05:19:56;;;;;;;1.70;1.60;;;16.70;38.20;;;;;;20733;6723;309029;-79
2023/03/23 05:22:36;;;;;;;1.70;1.60;;;16.70;38.20;;;;;;20612;6723;307144;-76
2023/03/23 05:25:14;;;;;;;1.57;1.47;;;16.90;37.80;;;;;;20935;6723;117726;-76
2023/03/23 05:27:53;;;;;;;1.27;1.27;;;16.70;38.00;;;;;;21030;6708;117295;-75
2023/03/23 05:30:27;;;;;;;1.60;1.50;;;16.30;38.30;;;;;;20660;6737;327764;-72
2023/03/23 05:33:03;;;;;;;1.90;1.80;;;16.40;38.30;;;;;;20570;6723;279809;-73
2023/03/23 05:35:41;;;;;;;1.70;1.60;;;16.70;38.60;;;;;;20972;6708;117308;-74
2023/03/23 05:38:14;;;;;;;1.42;1.33;;;16.60;38.40;;;;;;20724;6708;308536;-78
2023/03/23 05:40:52;;;;;;;1.77;1.67;;;16.70;38.20;;;;;;20905;6733;117004;-78
2023/03/23 05:43:25;;;;;;;1.50;1.50;;;16.60;38.00;;;;;;20779;6708;118308;-75
2023/03/23 05:46:01;;;;;;;1.80;1.70;;;16.30;38.40;;;;;;20751;6709;282697;-78
2023/03/23 05:48:38;;;;;;;1.50;1.40;;;16.40;39.10;;;;;;20748;6718;277187;-79
2023/03/23 05:51:17;;;;;;;1.97;1.80;;;16.70;38.50;;;;;;20722;6718;336314;-76
2023/03/23 05:53:55;;;;;;;1.57;1.57;;;17.00;37.50;;;;;;20690;6733;305769;-77
2023/03/23 05:56:27;;;;;;;3.77;2.60;;;17.20;37.40;;;;;;20919;6723;118841;-81
2023/03/23 05:59:02;;;;;;;2.10;2.00;;;16.90;37.50;;;;;;20729;6718;291116;-78
2023/03/23 06:01:38;;;;;;;1.60;1.50;;;16.90;36.90;;;;;;20940;6708;118082;-78
2023/03/23 06:04:14;;;;;;;1.50;1.40;;;16.80;37.20;;;;;;20917;6723;120794;-78
2023/03/23 06:06:50;;;;;;;1.50;1.40;;;16.50;37.40;;;;;;20926;6723;118501;-74
2023/03/23 06:09:25;;;;;;;1.45;1.35;;;16.30;37.80;;;;;;20638;6748;277660;-75
2023/03/23 06:12:04;;;;;;;1.70;1.57;;;16.40;37.40;;;;;;20872;6723;118540;-79
2023/03/23 06:14:40;;;;;;;1.10;1.10;;;16.30;37.60;;;;;;20966;6723;116236;-79
2023/03/23 06:17:12;;;;;;;1.50;1.40;;;16.30;37.60;;;;;;20766;6718;277033;-78
2023/03/23 06:19:50;;;;;;;1.43;1.33;;;16.50;37.40;;;;;;21020;6718;116665;-81
2023/03/23 06:22:24;;;;;;;1.70;1.60;;;16.60;37.40;;;;;;20529;6733;310483;-79
2023/03/23 06:24:59;;;;;;;1.50;1.40;;;16.80;37.00;;;;;;20655;6748;276382;-81
2023/03/23 06:27:35;;;;;;;1.50;1.40;;;17.10;36.80;;;;;;20737;6723;278815;-79
2023/03/23 06:30:11;;;;;;;1.60;1.50;;;17.40;36.20;;;;;;20686;6723;277822;-79
2023/03/23 06:32:47;;;;;;;2.10;1.90;;;17.60;36.00;;;;;;20603;6723;280625;-80
2023/03/23 06:35:23;;;;;;;1.55;1.45;;;17.80;35.80;;;;;;20731;6723;311274;-79
2023/03/23 06:38:02;;;;;;;1.47;1.40;;;17.80;35.80;;;;;;20858;6748;118153;-74
2023/03/23 06:40:46;;;;;;;2.27;1.57;;;17.70;36.00;;;;;;20730;6723;314089;-77
2023/03/23 06:43:11;;;;;;;1.63;1.53;;;17.80;36.20;;;;;;20773;6723;121842;-79
2023/03/23 06:45:46;;;;;;;2.33;1.60;;;17.60;36.40;;;;;;20693;6733;276330;-77
2023/03/23 06:48:23;;;;;;;1.47;1.37;;;17.60;36.60;;;;;;20922;6723;116912;-80
2023/03/23 06:50:59;;;;;;;1.90;1.50;;;17.40;36.50;;;;;;20905;6733;116983;-78
2023/03/23 06:53:38;;;;;;;1.47;1.37;;;17.10;36.80;;;;;;20940;6724;116790;-76
2023/03/23 06:56:13;;;;;;;1.65;1.45;;;16.80;37.20;;;;;;20702;6724;335692;-76
2023/03/23 06:58:49;;;;;;;2.00;1.67;;;17.00;38.60;;;;;;20689;6733;297650;-75
2023/03/23 07:01:24;;;;;;;1.90;1.70;;;17.30;38.50;;;;;;20667;6735;308627;-79
2023/03/23 07:04:01;;;;;;;2.37;1.53;;;17.50;37.70;;;;;;20893;6733;117770;-81
2023/03/23 07:06:37;;;;;;;1.67;1.58;;;17.40;37.60;;;;;;20696;6733;305247;-80
2023/03/23 07:09:12;;;;;;;1.80;1.70;;;17.40;37.80;;;;;;20794;6708;280787;-79
2023/03/23 07:11:54;;;;;;;2.60;1.70;;;17.70;37.40;;;;;;20937;6708;116703;-79
2023/03/23 07:14:23;;;;;;;1.60;1.50;;;17.50;37.40;;;;;;20939;6723;117705;-82
2023/03/23 07:17:01;;;;;;;2.30;1.73;;;17.20;37.50;;;;;;20735;6774;276588;-79
2023/03/23 07:19:37;;;;;;;1.80;1.70;;;17.30;37.00;;;;;;20694;6733;277681;-80
2023/03/23 07:22:12;;;;;;;1.75;1.65;;;17.60;36.50;;;;;;20690;6708;310048;-79
2023/03/23 07:24:50;;;;;;;2.73;1.50;;;17.90;36.20;;;;;;20760;6708;276835;-79
2023/03/23 07:27:25;;;;;;;1.90;1.70;;;18.10;35.80;;;;;;20723;6722;309507;-79
2023/03/23 07:30:01;;;;;;;2.77;2.50;;;18.20;35.50;;;;;;20912;6723;117000;-80
2023/03/23 07:32:36;;;;;;;2.50;2.40;;;18.00;35.80;;;;;;20618;6722;309595;-79
2023/03/23 07:35:13;;;;;;;1.93;1.83;;;18.10;36.00;;;;;;20716;6742;306271;-75
2023/03/23 07:37:48;;;;;;;2.00;1.90;;;18.10;36.00;;;;;;20936;6742;117402;-76
2023/03/23 07:40:24;;;;;;;2.40;2.30;;;17.90;36.20;;;;;;20693;6741;343133;-82
2023/03/23 07:43:00;;;;;;;2.90;2.77;;;17.90;36.80;;;;;;20563;6727;308841;-77
2023/03/23 07:45:35;;;;;;;2.80;2.60;;;18.10;37.10;;;;;;21026;6708;116795;-77
2023/03/23 07:48:11;;;;;;;1.93;1.83;;;17.80;36.90;;;;;;20711;6722;281466;-77
2023/03/23 07:50:47;;;;;;;3.10;1.70;;;17.90;37.60;;;;;;20899;6733;120659;-78
2023/03/23 07:53:24;;;;;;;2.73;2.60;;;17.70;37.50;;;;;;20730;6733;117299;-77
2023/03/23 07:56:01;;;;;;;3.10;2.90;;;17.40;37.70;;;;;;20880;6733;116964;-77
2023/03/23 07:58:41;;;;;;;2.43;2.33;;;17.10;37.80;;;;;;20686;6735;304387;-77
2023/03/23 08:01:12;;;;;;;2.90;2.70;;;17.70;37.10;;;;;;20722;6733;339522;-77
2023/03/23 08:03:47;;;;;;;3.63;2.93;;;17.60;37.50;;;;;;20947;6720;117342;-77
2023/03/23 08:06:23;;;;;;;2.20;2.10;;;17.70;37.40;;;;;;20939;6718;117263;-77
2023/03/23 08:08:59;;;;;;;2.20;2.00;;;17.50;37.50;;;;;;20959;6708;117663;-76
2023/03/23 08:11:34;;;;;;;3.90;3.70;;;17.40;37.80;;;;;;20695;6708;308459;-76
2023/03/23 08:14:09;;;;;;;5.53;5.15;;;17.60;37.90;;;;;;20724;6708;339699;-75
2023/03/23 08:16:46;;;;;;;7.10;6.60;;;18.40;37.30;;;;;;20694;6733;306426;-77
2023/03/23 08:19:21;;;;;;;5.28;4.87;;;18.40;37.40;;;;;;20741;6708;315238;-78
2023/03/23 08:21:58;;;;;;;4.83;4.40;;;18.90;36.50;;;;;;20620;6733;298568;-77
2023/03/23 08:24:35;;;;;;;3.43;3.13;;;18.90;36.50;;;;;;20721;6723;305009;-78
2023/03/23 08:27:10;;;;;;;5.60;4.00;;;19.10;36.40;;;;;;20936;6723;116881;-77
2023/03/23 08:29:46;;;;;;;4.07;3.67;;;18.90;36.60;;;;;;20646;6748;277802;-76
2023/03/23 08:32:22;;;;;;;4.40;4.10;;;18.90;36.70;;;;;;20798;6723;123666;-79
2023/03/23 08:34:58;;;;;;;2.70;2.50;;;18.80;36.90;;;;;;20726;6723;294593;-77
2023/03/23 08:37:34;;;;;;;2.30;2.20;;;18.90;37.20;;;;;;20942;6723;116971;-75
2023/03/23 08:40:11;;;;;;;2.87;1.80;;;18.90;37.10;;;;;;20911;6723;117045;-79
2023/03/23 08:42:47;;;;;;;1.93;1.73;;;18.80;37.30;;;;;;20860;6723;117169;-79
2023/03/23 08:45:22;;;;;;;1.73;1.63;;;18.60;37.60;;;;;;20935;6733;119127;-78
2023/03/23 08:47:59;;;;;;;2.13;1.63;;;18.40;37.80;;;;;;20947;6723;117161;-78
2023/03/23 08:50:36;;;;;;;2.13;2.03;;;18.30;38.10;;;;;;20937;6723;116912;-80
2023/03/23 08:53:09;;;;;;;2.40;2.10;;;18.00;38.60;;;;;;20740;6747;118782;-77
2023/03/23 08:55:45;;;;;;;2.70;2.50;;;18.00;38.60;;;;;;20935;6723;118591;-76
2023/03/23 08:58:20;;;;;;;2.10;2.00;;;17.90;38.70;;;;;;20919;6723;120840;-77
2023/03/23 09:00:56;;;;;;;2.93;2.73;;;17.80;38.80;;;;;;20950;6723;116998;-77
2023/03/23 09:03:31;;;;;;;3.00;2.80;;;17.80;39.10;;;;;;20756;6708;276605;-79
2023/03/23 09:06:07;;;;;;;2.10;2.00;;;18.10;39.60;;;;;;20882;6733;118126;-79
2023/03/23 09:08:43;;;;;;;3.03;2.70;;;18.20;39.20;;;;;;20751;6708;276686;-77
2023/03/23 09:11:21;;;;;;;5.97;5.57;;;18.40;39.40;;;;;;20933;6708;118052;-77
2023/03/23 09:13:54;;;;;;;6.73;6.23;;;18.50;39.10;;;;;;20944;6723;116914;-81
2023/03/23 09:16:31;;;;;;;5.03;4.63;;;18.30;39.10;;;;;;20958;6723;118005;-81
2023/03/23 09:19:09;;;;;;;4.87;4.50;;;18.40;40.00;;;;;;20659;6748;339914;-84
2023/03/23 09:21:45;;;;;;;5.15;4.75;;;18.40;40.00;;;;;;20740;6708;307540;-81
2023/03/23 09:24:22;;;;;;;4.23;3.83;;;18.90;39.70;;;;;;20961;6723;117109;-79
2023/03/23 09:26:55;;;;;;;3.83;3.53;;;18.90;39.00;;;;;;20876;6748;117209;-80
2023/03/23 09:29:32;;;;;;;4.17;3.87;;;18.50;39.20;;;;;;20992;6708;118017;-77
2023/03/23 09:32:07;;;;;;;3.47;3.27;;;18.50;39.20;;;;;;20672;6723;282306;-78
2023/03/23 09:34:43;;;;;;;2.60;2.20;;;18.70;39.60;;;;;;20739;6723;276349;-78
2023/03/23 09:37:18;;;;;;;3.50;3.30;;;19.00;39.00;;;;;;20725;6723;276102;-77
2023/03/23 09:39:54;;;;;;;2.75;2.40;;;19.40;38.70;;;;;;20716;6723;305322;-76
2023/03/23 09:42:43;;;;;;;3.12;2.92;;;19.60;38.60;;;;;;20596;6723;337645;-78
2023/03/23 09:45:22;;;;;;;3.00;2.80;;;19.80;38.10;;;;;;20700;6733;306273;-78
2023/03/23 09:48:07;;;;;;;1.90;1.80;;;20.00;38.00;;;;;;20936;6723;123806;-74
2023/03/23 09:50:43;;;;;;;1.95;1.85;;;19.70;38.00;;;;;;20724;6723;336421;-72
2023/03/23 09:53:25;;;;;;;2.00;1.90;;;19.70;38.10;;;;;;20774;6723;117805;-73
2023/03/23 09:56:04;;;;;;;1.67;1.50;;;19.40;38.80;;;;;;20948;6708;117987;-75
2023/03/23 09:58:56;;;;;;;1.80;1.70;;;19.10;38.70;;;;;;20948;6721;117327;-73
2023/03/23 10:01:36;;;;;;;1.60;1.50;;;18.80;39.10;;;;;;20890;6724;118041;-73
2023/03/23 10:04:22;;;;;;;1.90;1.70;;;18.70;39.60;;;;;;20873;6737;117350;-73
2023/03/23 10:06:58;;;;;;;1.60;1.50;;;18.60;39.60;;;;;;20914;6723;117059;-71
2023/03/23 10:09:33;;;;;;;1.77;1.67;;;18.60;39.80;;;;;;20751;6715;280851;-73
2023/03/23 10:12:35;;;;;;;1.75;1.65;;;18.80;40.10;;;;;;20616;6723;337246;-76
2023/03/23 10:15:14;;;;;;;1.75;1.40;;;19.20;39.50;;;;;;20815;6708;304152;-74
2023/03/23 10:17:46;;;;;;;1.43;1.40;;;19.70;39.10;;;;;;20916;6782;116961;-72
2023/03/23 10:20:44;;;;;;;1.60;1.50;;;19.80;38.90;;;;;;20882;6734;120518;-76
2023/03/23 10:23:21;;;;;;;1.53;1.43;;;19.60;38.70;;;;;;20492;6745;307805;-73
2023/03/23 10:26:00;;;;;;;1.80;1.70;;;19.70;38.10;;;;;;20644;6804;277586;-71
2023/03/23 10:28:53;;;;;;;2.50;1.70;;;20.00;38.00;;;;;;20816;6708;276071;-72
2023/03/23 10:31:28;;;;;;;1.80;1.70;;;20.40;37.90;;;;;;20686;6726;309482;-71
2023/03/23 10:34:10;;;;;;;2.33;1.67;;;20.70;37.50;;;;;;20961;6708;118215;-73
2023/03/23 10:36:59;;;;;;;1.27;1.17;;;20.60;38.00;;;;;;20898;6733;117503;-75
2023/03/23 10:39:48;;;;;;;1.57;1.47;;;20.30;37.50;;;;;;20815;6708;275562;-70
2023/03/23 10:42:27;;;;;;;2.10;1.50;;;20.30;37.40;;;;;;20573;6726;278275;-70
2023/03/23 10:45:12;;;;;;;1.83;1.73;;;20.50;37.30;;;;;;20670;6723;306509;-71
2023/03/23 10:48:04;;;;;;;1.50;1.40;;;20.70;37.50;;;;;;20647;6735;280812;-70
2023/03/23 10:50:40;;;;;;;1.70;1.60;;;20.80;37.40;;;;;;20857;6748;117574;-72
2023/03/23 10:53:39;;;;;;;1.50;1.40;;;20.50;37.40;;;;;;20792;6723;121090;-71
2023/03/23 10:56:18;;;;;;;2.30;1.62;;;20.20;38.20;;;;;;20629;6748;280418;-71
2023/03/23 10:58:54;;;;;;;1.70;1.60;;;20.10;38.10;;;;;;20937;6723;117195;-69
2023/03/23 11:01:29;;;;;;;1.67;1.58;;;20.00;38.00;;;;;;20685;6727;278650;-73
2023/03/23 11:04:05;;;;;;;1.73;1.63;;;20.10;38.50;;;;;;20960;6708;121164;-74
2023/03/23 11:06:42;;;;;;;2.30;1.80;;;20.00;38.30;;;;;;20816;6708;275165;-72
2023/03/23 11:09:17;;;;;;;1.67;1.57;;;20.10;38.90;;;;;;20929;6726;117175;-71
2023/03/23 11:11:53;;;;;;;1.83;1.73;;;20.10;38.60;;;;;;20851;6735;117432;-71
2023/03/23 11:14:28;;;;;;;1.53;1.53;;;20.00;38.70;;;;;;20889;6734;117586;-69
2023/03/23 11:17:07;;;;;;;1.70;1.60;;;19.90;38.80;;;;;;20665;6742;306669;-71
2023/03/23 11:19:39;;;;;;;1.83;1.73;;;20.20;39.00;;;;;;20938;6723;116910;-70
2023/03/23 11:22:29;;;;;;;1.57;1.47;;;20.20;39.00;;;;;;20864;6722;117094;-70
2023/03/23 11:25:05;;;;;;;1.90;1.80;;;20.20;38.60;;;;;;20706;6733;307308;-71
2023/03/23 11:27:42;;;;;;;1.70;1.60;;;20.80;37.90;;;;;;20703;6733;335858;-73
2023/03/23 11:30:19;;;;;;;2.33;1.60;;;20.80;37.80;;;;;;20916;6723;117922;-70
2023/03/23 11:32:56;;;;;;;1.70;1.60;;;20.80;37.60;;;;;;20747;6726;117852;-74
2023/03/23 11:35:31;;;;;;;1.50;1.50;;;20.70;37.80;;;;;;20724;6723;275886;-71
2023/03/23 11:38:07;;;;;;;1.75;1.65;;;20.80;37.80;;;;;;20703;6723;280998;-71
2023/03/23 11:40:42;;;;;;;2.37;1.80;;;21.50;36.60;;;;;;20737;6716;278491;-70
2023/03/23 11:43:18;;;;;;;3.10;1.67;;;21.40;36.50;;;;;;20688;6748;118717;-71
2023/03/23 11:46:04;;;;;;;1.53;1.53;;;21.30;36.30;;;;;;20930;6723;117334;-71
2023/03/23 11:48:49;;;;;;;2.13;1.60;;;21.10;36.50;;;;;;20834;6748;117393;-70
2023/03/23 11:51:34;;;;;;;1.40;1.40;;;20.90;36.90;;;;;;20906;6723;123712;-70
2023/03/23 11:54:26;;;;;;;2.23;1.37;;;20.90;37.40;;;;;;20839;6748;121539;-71
2023/03/23 11:57:02;;;;;;;1.70;1.60;;;20.80;37.10;;;;;;20765;6779;117339;-71
2023/03/23 11:59:38;;;;;;;1.70;1.60;;;20.70;36.70;;;;;;20893;6723;117462;-71
2023/03/23 12:02:27;;;;;;;1.47;1.43;;;20.60;36.70;;;;;;20830;6723;118126;-68
2023/03/23 12:05:10;;;;;;;1.70;1.60;;;20.50;36.60;;;;;;20776;6708;280212;-69
2023/03/23 12:07:54;;;;;;;1.97;1.43;;;20.80;35.90;;;;;;20944;6720;118054;-71
2023/03/23 12:10:54;;;;;;;1.70;1.60;;;21.20;35.70;;;;;;20767;6720;283772;-68
2023/03/23 12:13:52;;;;;;;1.70;1.60;;;21.60;35.80;;;;;;19997;6863;339643;-74
2023/03/23 12:16:28;;;;;;;1.90;1.80;;;21.50;35.70;;;;;;20703;6735;306700;-68
2023/03/23 12:19:27;;;;;;;1.60;1.50;;;21.90;35.50;;;;;;20888;6737;117450;-71
2023/03/23 12:22:17;;;;;;;1.63;1.53;;;21.80;35.50;;;;;;20864;6720;122911;-73
2023/03/23 12:24:58;;;;;;;1.70;1.60;;;21.50;35.50;;;;;;20804;6706;333461;-74
2023/03/23 12:27:56;;;;;;;1.60;1.50;;;21.60;35.20;;;;;;20936;6720;116789;-71
2023/03/23 12:30:36;;;;;;;1.70;1.60;;;21.60;35.40;;;;;;20697;6720;277325;-71
2023/03/23 12:33:17;;;;;;;1.60;1.50;;;21.90;35.70;;;;;;20491;6731;278980;-70
2023/03/23 12:36:27;;;;;;;1.70;1.60;;;22.20;34.00;;;;;;20656;6746;283346;-70
2023/03/23 12:39:43;;;;;;;1.50;1.40;;;22.30;33.50;;;;;;21031;6705;116711;-72
2023/03/23 12:42:31;;;;;;;1.97;1.77;;;21.90;33.40;;;;;;20611;6736;279071;-71
2023/03/23 12:45:08;;;;;;;1.57;1.57;;;21.80;33.30;;;;;;20943;6719;117562;-69
2023/03/23 12:47:46;;;;;;;2.00;1.90;;;21.20;35.00;;;;;;20904;6724;117363;-70
2023/03/23 12:50:22;;;;;;;1.93;1.83;;;21.20;34.30;;;;;;20818;6749;119659;-70
2023/03/23 12:53:00;;;;;;;1.50;1.40;;;20.80;34.70;;;;;;20777;6733;117918;-70
2023/03/23 12:55:36;;;;;;;2.20;1.60;;;20.60;35.20;;;;;;20691;6733;277735;-70
2023/03/23 12:58:11;;;;;;;1.90;1.70;;;20.80;35.90;;;;;;20664;6733;338619;-71
2023/03/23 13:00:58;;;;;;;2.00;1.73;;;21.40;34.90;;;;;;20738;6708;308001;-69
2023/03/23 13:03:47;;;;;;;1.60;1.50;;;21.40;34.70;;;;;;20903;6733;117365;-72
2023/03/23 13:06:35;;;;;;;1.83;1.50;;;21.30;34.70;;;;;;20910;6723;123257;-71
2023/03/23 13:09:27;;;;;;;2.00;1.80;;;20.90;34.90;;;;;;20711;6723;308660;-72
2023/03/23 13:12:02;;;;;;;1.87;1.77;;;21.00;34.60;;;;;;20627;6722;311173;-72
2023/03/23 13:14:40;;;;;;;1.67;1.57;;;21.30;34.30;;;;;;20931;6724;117216;-76
2023/03/23 13:17:18;;;;;;;2.00;1.90;;;21.20;34.50;;;;;;20714;6722;306083;-73
2023/03/23 13:20:18;;;;;;;2.03;1.80;;;21.30;34.40;;;;;;20732;6716;276168;-73
2023/03/23 13:22:56;;;;;;;1.70;1.60;;;21.50;34.10;;;;;;20716;6748;117368;-72
2023/03/23 13:26:07;;;;;;;4.37;1.77;;;21.40;34.20;;;;;;20981;6720;116933;-73
2023/03/23 13:28:53;;;;;;;2.08;1.80;;;21.10;34.50;;;;;;20689;6746;305839;-74
2023/03/23 13:31:35;;;;;;;1.53;1.43;;;21.30;34.70;;;;;;20865;6735;116840;-73
2023/03/23 13:34:24;;;;;;;1.47;1.43;;;21.20;34.50;;;;;;20839;6748;117430;-74